createdAt,value
2022-08-02T00:00:00.439Z,100755
2022-08-02T00:01:00.293Z,100755
2022-08-02T00:02:00.454Z,100755
2022-08-02T00:03:00.288Z,100755
2022-08-02T00:04:00.563Z,100750
2022-08-02T00:05:00.302Z,100750
2022-08-02T00:06:00.295Z,100750
2022-08-02T00:07:00.487Z,100750
2022-08-02T00:08:00.319Z,100750
2022-08-02T00:09:00.679Z,100749
2022-08-02T00:10:00.326Z,100749
2022-08-02T00:11:00.320Z,100749
2022-08-02T00:12:00.274Z,100749
2022-08-02T00:13:00.291Z,100749
2022-08-02T00:14:00.478Z,100755
2022-08-02T00:15:00.690Z,100755
2022-08-02T00:16:00.276Z,100755
2022-08-02T00:17:00.277Z,100755
2022-08-02T00:18:00.277Z,100755
2022-08-02T00:19:00.295Z,100748
2022-08-02T00:20:00.341Z,100748
2022-08-02T00:21:00.260Z,100748
2022-08-02T00:22:00.362Z,100748
2022-08-02T00:23:00.276Z,100748
2022-08-02T00:24:29.509Z,100741
2022-08-02T00:25:00.260Z,100741
2022-08-02T00:26:00.279Z,100741
2022-08-02T00:27:00.342Z,100741
2022-08-02T00:28:00.256Z,100741
2022-08-02T00:29:00.301Z,100740
2022-08-02T00:30:00.408Z,100740
2022-08-02T00:31:00.298Z,100740
2022-08-02T00:32:00.727Z,100740
2022-08-02T00:33:00.259Z,100740
2022-08-02T00:34:27.639Z,100732
2022-08-02T00:35:00.326Z,100732
2022-08-02T00:36:00.262Z,100732
2022-08-02T00:37:00.284Z,100732
2022-08-02T00:38:01.311Z,100732
2022-08-02T00:39:00.296Z,100715
2022-08-02T00:40:00.264Z,100715
2022-08-02T00:41:00.326Z,100715
2022-08-02T00:42:00.271Z,100715
2022-08-02T00:43:01.270Z,100715
2022-08-02T00:44:00.278Z,100711
2022-08-02T00:45:00.349Z,100711
2022-08-02T00:46:03.277Z,100711
2022-08-02T00:47:00.299Z,100711
2022-08-02T00:48:00.368Z,100711
2022-08-02T00:49:00.350Z,100710
2022-08-02T00:50:00.293Z,100710
2022-08-02T00:51:00.512Z,100710
2022-08-02T00:52:00.329Z,100710
2022-08-02T00:53:00.511Z,100710
2022-08-02T00:54:00.299Z,100712
2022-08-02T00:55:00.297Z,100712
2022-08-02T00:56:00.390Z,100712
2022-08-02T00:57:00.259Z,100712
2022-08-02T00:58:00.493Z,100712
2022-08-02T00:59:00.761Z,100704
2022-08-02T01:00:00.351Z,100704
2022-08-02T01:01:00.346Z,100704
2022-08-02T01:02:00.356Z,100704
2022-08-02T01:03:00.269Z,100704
2022-08-02T01:04:00.260Z,100717
2022-08-02T01:05:00.394Z,100717
2022-08-02T01:06:11.239Z,100717
2022-08-02T01:07:00.734Z,100717
2022-08-02T01:08:00.807Z,100717
2022-08-02T01:09:00.525Z,100714
2022-08-02T01:10:00.279Z,100714
2022-08-02T01:11:00.275Z,100714
2022-08-02T01:12:02.857Z,100714
2022-08-02T01:13:00.420Z,100714
2022-08-02T01:14:03.952Z,100724
2022-08-02T01:15:03.953Z,100724
2022-08-02T01:16:03.159Z,100724
2022-08-02T01:17:09.448Z,100724
2022-08-02T01:18:04.504Z,100724
2022-08-02T01:19:05.274Z,100712
2022-08-02T01:20:10.193Z,100712
2022-08-02T01:21:10.277Z,100712
2022-08-02T01:22:10.538Z,100712
2022-08-02T01:23:02.559Z,100712
2022-08-02T01:24:07.476Z,100708
2022-08-02T01:25:07.372Z,100708
2022-08-02T01:26:10.188Z,100708
2022-08-02T01:27:10.177Z,100708
2022-08-02T01:28:07.620Z,100708
2022-08-02T01:29:03.519Z,100707
2022-08-02T01:30:01.454Z,100707
2022-08-02T01:31:03.488Z,100707
2022-08-02T01:32:01.362Z,100707
2022-08-02T01:33:02.010Z,100707
2022-08-02T01:34:02.573Z,100708
2022-08-02T01:35:10.203Z,100708
2022-08-02T01:36:02.001Z,100708
2022-08-02T01:37:10.200Z,100708
2022-08-02T01:38:10.180Z,100708
2022-08-02T01:39:01.725Z,100693
2022-08-02T01:40:03.958Z,100693
2022-08-02T01:41:02.680Z,100693
2022-08-02T01:42:00.974Z,100693
2022-08-02T01:43:00.735Z,100693
2022-08-02T01:44:01.927Z,100687
2022-08-02T01:45:01.799Z,100687
2022-08-02T01:46:00.349Z,100687
2022-08-02T01:47:02.369Z,100687
2022-08-02T01:48:02.301Z,100687
2022-08-02T01:49:01.930Z,100690
2022-08-02T01:50:01.401Z,100690
2022-08-02T01:51:01.695Z,100690
2022-08-02T01:52:02.048Z,100690
2022-08-02T01:53:02.679Z,100690
2022-08-02T01:54:01.443Z,100683
2022-08-02T01:55:03.579Z,100683
2022-08-02T01:56:00.682Z,100683
2022-08-02T01:57:01.617Z,100683
2022-08-02T01:58:02.424Z,100683
2022-08-02T01:59:01.479Z,100681
2022-08-02T02:00:01.565Z,100681
2022-08-02T02:01:00.837Z,100681
2022-08-02T02:02:00.863Z,100681
2022-08-02T02:03:01.283Z,100681
2022-08-02T02:04:00.521Z,100671
2022-08-02T02:05:01.140Z,100671
2022-08-02T02:06:02.328Z,100671
2022-08-02T02:07:01.047Z,100671
2022-08-02T02:08:02.352Z,100671
2022-08-02T02:09:01.132Z,100666
2022-08-02T02:10:01.321Z,100666
2022-08-02T02:12:05.939Z,100666
2022-08-02T02:12:08.684Z,100666
2022-08-02T02:13:02.955Z,100666
2022-08-02T02:14:01.686Z,100663
2022-08-02T02:15:01.326Z,100663
2022-08-02T02:16:01.912Z,100663
2022-08-02T02:17:01.278Z,100663
2022-08-02T02:18:11.982Z,100663
2022-08-02T02:19:01.493Z,100655
2022-08-02T02:20:01.402Z,100655
2022-08-02T02:21:00.293Z,100655
2022-08-02T02:22:00.553Z,100655
2022-08-02T02:23:00.289Z,100655
2022-08-02T02:24:00.471Z,100645
2022-08-02T02:25:00.309Z,100645
2022-08-02T02:26:02.227Z,100645
2022-08-02T02:27:02.282Z,100645
2022-08-02T02:28:02.435Z,100645
2022-08-02T02:29:01.681Z,100644
2022-08-02T02:30:01.915Z,100644
2022-08-02T02:31:04.325Z,100644
2022-08-02T02:32:00.646Z,100644
2022-08-02T02:33:01.648Z,100644
2022-08-02T02:34:02.063Z,100641
2022-08-02T02:35:02.156Z,100641
2022-08-02T02:36:01.597Z,100641
2022-08-02T02:37:01.768Z,100641
2022-08-02T02:38:01.375Z,100641
2022-08-02T02:39:01.877Z,100637
2022-08-02T02:40:01.343Z,100637
2022-08-02T02:41:02.017Z,100637
2022-08-02T02:42:01.688Z,100637
2022-08-02T02:43:00.481Z,100637
2022-08-02T02:44:01.703Z,100633
2022-08-02T02:45:01.908Z,100633
2022-08-02T02:46:02.631Z,100633
2022-08-02T02:47:00.926Z,100633
2022-08-02T02:48:01.192Z,100633
2022-08-02T02:49:00.748Z,100633
2022-08-02T02:50:01.067Z,100633
2022-08-02T02:51:02.410Z,100633
2022-08-02T02:52:01.610Z,100633
2022-08-02T02:53:00.646Z,100633
2022-08-02T02:54:33.469Z,100634
2022-08-02T02:55:01.003Z,100634
2022-08-02T02:56:01.597Z,100634
2022-08-02T02:57:00.662Z,100634
2022-08-02T02:58:00.960Z,100634
2022-08-02T02:59:00.518Z,100619
2022-08-02T03:00:00.844Z,100619
2022-08-02T03:01:00.629Z,100619
2022-08-02T03:02:00.703Z,100619
2022-08-02T03:03:00.750Z,100619
2022-08-02T03:04:01.845Z,100621
2022-08-02T03:05:01.554Z,100621
2022-08-02T03:06:00.299Z,100621
2022-08-02T03:07:00.661Z,100621
2022-08-02T03:08:00.360Z,100621
2022-08-02T03:09:00.305Z,100619
2022-08-02T03:10:01.724Z,100619
2022-08-02T03:11:00.518Z,100619
2022-08-02T03:12:00.670Z,100619
2022-08-02T03:13:00.295Z,100619
2022-08-02T03:14:01.492Z,100608
2022-08-02T03:15:01.262Z,100608
2022-08-02T03:16:00.736Z,100608
2022-08-02T03:17:00.276Z,100608
2022-08-02T03:18:00.261Z,100608
2022-08-02T03:19:01.028Z,100605
2022-08-02T03:20:00.335Z,100605
2022-08-02T03:21:01.392Z,100605
2022-08-02T03:22:00.405Z,100605
2022-08-02T03:23:00.261Z,100605
2022-08-02T03:24:00.270Z,100596
2022-08-02T03:25:00.253Z,100596
2022-08-02T03:26:00.783Z,100596
2022-08-02T03:27:00.274Z,100596
2022-08-02T03:28:00.267Z,100596
2022-08-02T03:29:01.302Z,100596
2022-08-02T03:30:00.294Z,100596
2022-08-02T03:31:00.283Z,100596
2022-08-02T03:32:00.656Z,100596
2022-08-02T03:33:00.309Z,100596
2022-08-02T03:34:01.413Z,100595
2022-08-02T03:35:00.702Z,100595
2022-08-02T03:36:02.843Z,100595
2022-08-02T03:37:01.267Z,100595
2022-08-02T03:38:00.776Z,100595
2022-08-02T03:39:00.801Z,100599
2022-08-02T03:40:00.634Z,100599
2022-08-02T03:41:01.246Z,100599
2022-08-02T03:42:00.486Z,100599
2022-08-02T03:43:00.524Z,100599
2022-08-02T03:44:00.945Z,100589
2022-08-02T03:45:06.249Z,100589
2022-08-02T03:46:01.125Z,100589
2022-08-02T03:47:00.866Z,100589
2022-08-02T03:48:00.258Z,100589
2022-08-02T03:49:00.841Z,100583
2022-08-02T03:50:00.377Z,100583
2022-08-02T03:51:00.960Z,100583
2022-08-02T03:52:00.880Z,100583
2022-08-02T03:53:00.565Z,100583
2022-08-02T03:54:00.804Z,100587
2022-08-02T03:55:00.378Z,100587
2022-08-02T03:56:00.499Z,100587
2022-08-02T03:57:00.278Z,100587
2022-08-02T03:58:00.500Z,100587
2022-08-02T03:59:08.220Z,100589
2022-08-02T04:00:00.379Z,100589
2022-08-02T04:01:00.592Z,100589
2022-08-02T04:02:00.255Z,100589
2022-08-02T04:03:00.307Z,100589
2022-08-02T04:04:00.284Z,100582
2022-08-02T04:05:00.414Z,100582
2022-08-02T04:06:04.037Z,100582
2022-08-02T04:07:00.509Z,100582
2022-08-02T04:08:34.410Z,100582
2022-08-02T04:09:00.384Z,100574
2022-08-02T04:10:00.342Z,100574
2022-08-02T04:11:00.312Z,100574
2022-08-02T04:12:00.302Z,100574
2022-08-02T04:13:00.252Z,100574
2022-08-02T04:14:03.505Z,100587
2022-08-02T04:15:00.632Z,100587
2022-08-02T04:16:07.259Z,100587
2022-08-02T04:17:03.533Z,100587
2022-08-02T04:18:01.409Z,100587
2022-08-02T04:19:01.229Z,100590
2022-08-02T04:20:02.606Z,100590
2022-08-02T04:21:01.860Z,100590
2022-08-02T04:22:01.740Z,100590
2022-08-02T04:23:03.962Z,100590
2022-08-02T04:24:01.358Z,100588
2022-08-02T04:25:01.898Z,100588
2022-08-02T04:26:00.727Z,100588
2022-08-02T04:27:06.646Z,100588
2022-08-02T04:28:17.665Z,100588
2022-08-02T04:29:00.682Z,100593
2022-08-02T04:30:00.575Z,100593
2022-08-02T04:31:01.444Z,100593
2022-08-02T04:32:00.331Z,100593
2022-08-02T04:33:00.438Z,100593
2022-08-02T04:34:00.684Z,100595
2022-08-02T04:35:19.806Z,100595
2022-08-02T04:36:00.540Z,100595
2022-08-02T04:37:00.668Z,100595
2022-08-02T04:38:08.694Z,100595
2022-08-02T04:39:00.314Z,100590
2022-08-02T04:40:00.307Z,100590
2022-08-02T04:41:00.294Z,100590
2022-08-02T04:42:00.252Z,100590
2022-08-02T04:43:00.261Z,100590
2022-08-02T04:44:00.296Z,100587
2022-08-02T04:45:00.348Z,100587
2022-08-02T04:46:00.437Z,100587
2022-08-02T04:47:06.111Z,100587
2022-08-02T04:48:05.662Z,100587
2022-08-02T04:49:00.430Z,100576
2022-08-02T04:50:00.313Z,100576
2022-08-02T04:51:00.275Z,100576
2022-08-02T04:52:00.258Z,100576
2022-08-02T04:53:00.626Z,100576
2022-08-02T04:54:05.207Z,100579
2022-08-02T04:55:00.282Z,100579
2022-08-02T04:56:00.286Z,100579
2022-08-02T04:57:00.269Z,100579
2022-08-02T04:58:03.751Z,100579
2022-08-02T04:59:00.666Z,100574
2022-08-02T05:00:00.419Z,100574
2022-08-02T05:01:00.460Z,100574
2022-08-02T05:02:00.297Z,100574
2022-08-02T05:03:00.288Z,100574
2022-08-02T05:04:00.302Z,100573
2022-08-02T05:05:00.341Z,100573
2022-08-02T05:06:00.414Z,100573
2022-08-02T05:07:00.253Z,100573
2022-08-02T05:08:00.548Z,100573
2022-08-02T05:09:00.274Z,100585
2022-08-02T05:10:00.293Z,100585
2022-08-02T05:11:00.258Z,100585
2022-08-02T05:12:00.281Z,100585
2022-08-02T05:13:02.253Z,100585
2022-08-02T05:14:00.440Z,100590
2022-08-02T05:15:00.314Z,100590
2022-08-02T05:16:00.292Z,100590
2022-08-02T05:17:00.310Z,100590
2022-08-02T05:18:00.308Z,100590
2022-08-02T05:19:00.541Z,100588
2022-08-02T05:20:00.296Z,100588
2022-08-02T05:21:00.350Z,100588
2022-08-02T05:22:00.259Z,100588
2022-08-02T05:23:00.591Z,100588
2022-08-02T05:24:00.444Z,100576
2022-08-02T05:25:00.398Z,100576
2022-08-02T05:26:00.288Z,100576
2022-08-02T05:27:00.277Z,100576
2022-08-02T05:28:00.270Z,100576
2022-08-02T05:29:00.301Z,100576
2022-08-02T05:30:00.369Z,100576
2022-08-02T05:31:00.274Z,100576
2022-08-02T05:32:00.265Z,100576
2022-08-02T05:33:00.267Z,100576
2022-08-02T05:34:00.264Z,100572
2022-08-02T05:35:00.599Z,100572
2022-08-02T05:36:00.311Z,100572
2022-08-02T05:37:00.375Z,100572
2022-08-02T05:38:00.273Z,100572
2022-08-02T05:39:04.955Z,100563
2022-08-02T05:40:01.101Z,100563
2022-08-02T05:41:00.282Z,100563
2022-08-02T05:42:00.343Z,100563
2022-08-02T05:43:00.374Z,100563
2022-08-02T05:44:01.518Z,100578
2022-08-02T05:45:00.405Z,100578
2022-08-02T05:46:00.348Z,100578
2022-08-02T05:47:00.261Z,100578
2022-08-02T05:48:00.260Z,100578
2022-08-02T05:49:00.344Z,100578
2022-08-02T05:50:00.297Z,100578
2022-08-02T05:51:03.374Z,100578
2022-08-02T05:52:08.332Z,100578
2022-08-02T05:53:03.088Z,100578
2022-08-02T05:54:05.100Z,100585
2022-08-02T05:55:10.217Z,100585
2022-08-02T05:56:10.174Z,100585
2022-08-02T05:57:03.719Z,100585
2022-08-02T05:58:05.087Z,100585
2022-08-02T05:59:03.936Z,100581
2022-08-02T06:00:09.426Z,100581
2022-08-02T06:01:02.379Z,100581
2022-08-02T06:02:02.553Z,100581
2022-08-02T06:03:01.274Z,100581
2022-08-02T06:04:04.075Z,100587
2022-08-02T06:05:10.197Z,100587
2022-08-02T06:06:01.277Z,100587
2022-08-02T06:07:01.090Z,100587
2022-08-02T06:08:00.593Z,100587
2022-08-02T06:09:03.626Z,100581
2022-08-02T06:10:01.744Z,100581
2022-08-02T06:11:01.176Z,100581
2022-08-02T06:12:02.961Z,100581
2022-08-02T06:13:03.576Z,100581
2022-08-02T06:14:01.487Z,100570
2022-08-02T06:15:01.706Z,100570
2022-08-02T06:16:00.332Z,100570
2022-08-02T06:17:03.690Z,100570
2022-08-02T06:18:01.063Z,100570
2022-08-02T06:19:00.860Z,100560
2022-08-02T06:20:00.613Z,100560
2022-08-02T06:22:33.375Z,100560
2022-08-02T06:22:33.856Z,100560
2022-08-02T06:23:01.500Z,100560
2022-08-02T06:24:01.358Z,100562
2022-08-02T06:25:01.387Z,100562
2022-08-02T06:26:00.860Z,100562
2022-08-02T06:27:01.588Z,100562
2022-08-02T06:28:01.138Z,100562
2022-08-02T06:29:00.900Z,100560
2022-08-02T06:30:00.607Z,100560
2022-08-02T06:31:00.523Z,100560
2022-08-02T06:32:01.137Z,100560
2022-08-02T06:33:00.483Z,100560
2022-08-02T06:34:00.278Z,100561
2022-08-02T06:35:01.116Z,100561
2022-08-02T06:36:00.237Z,100561
2022-08-02T06:37:05.725Z,100561
2022-08-02T06:38:00.851Z,100561
2022-08-02T06:39:00.238Z,100573
2022-08-02T06:40:03.236Z,100573
2022-08-02T06:41:02.729Z,100573
2022-08-02T06:42:02.352Z,100573
2022-08-02T06:43:10.178Z,100573
2022-08-02T06:44:19.657Z,100580
2022-08-02T06:45:00.299Z,100580
2022-08-02T06:47:10.097Z,100580
2022-08-02T06:47:10.793Z,100580
2022-08-02T06:48:00.688Z,100580
2022-08-02T06:49:01.163Z,100578
2022-08-02T06:50:00.338Z,100578
2022-08-02T06:51:02.222Z,100578
2022-08-02T06:52:01.519Z,100578
2022-08-02T06:53:00.325Z,100578
2022-08-02T06:54:00.261Z,100579
2022-08-02T06:55:01.123Z,100579
2022-08-02T06:56:00.302Z,100579
2022-08-02T06:57:00.361Z,100579
2022-08-02T06:58:00.260Z,100579
2022-08-02T06:59:03.200Z,100583
2022-08-02T07:00:00.852Z,100583
2022-08-02T07:01:00.382Z,100583
2022-08-02T07:02:00.428Z,100583
2022-08-02T07:03:00.282Z,100583
2022-08-02T07:04:00.302Z,100588
2022-08-02T07:05:00.520Z,100588
2022-08-02T07:06:00.494Z,100588
2022-08-02T07:07:00.297Z,100588
2022-08-02T07:08:00.770Z,100588
2022-08-02T07:09:20.124Z,100590
2022-08-02T07:10:01.629Z,100590
2022-08-02T07:11:00.819Z,100590
2022-08-02T07:12:00.256Z,100590
2022-08-02T07:13:00.332Z,100590
2022-08-02T07:14:00.251Z,100592
2022-08-02T07:15:01.316Z,100592
2022-08-02T07:16:01.409Z,100592
2022-08-02T07:17:00.670Z,100592
2022-08-02T07:18:00.260Z,100592
2022-08-02T07:19:00.277Z,100596
2022-08-02T07:20:00.472Z,100596
2022-08-02T07:21:00.281Z,100596
2022-08-02T07:22:00.688Z,100596
2022-08-02T07:23:00.258Z,100596
2022-08-02T07:24:00.354Z,100596
2022-08-02T07:25:00.423Z,100596
2022-08-02T07:26:03.208Z,100596
2022-08-02T07:27:12.348Z,100596
2022-08-02T07:28:00.262Z,100596
2022-08-02T07:29:00.298Z,100599
2022-08-02T07:30:00.317Z,100599
2022-08-02T07:31:00.269Z,100599
2022-08-02T07:32:00.333Z,100599
2022-08-02T07:33:00.767Z,100599
2022-08-02T07:34:00.256Z,100595
2022-08-02T07:35:02.694Z,100595
2022-08-02T07:36:00.349Z,100595
2022-08-02T07:37:00.486Z,100595
2022-08-02T07:38:02.340Z,100595
2022-08-02T07:39:00.262Z,100599
2022-08-02T07:40:00.585Z,100599
2022-08-02T07:41:00.255Z,100599
2022-08-02T07:42:00.257Z,100599
2022-08-02T07:43:03.963Z,100599
2022-08-02T07:44:00.363Z,100589
2022-08-02T07:45:00.307Z,100589
2022-08-02T07:46:00.969Z,100589
2022-08-02T07:47:00.986Z,100589
2022-08-02T07:48:00.252Z,100589
2022-08-02T07:49:00.290Z,100593
2022-08-02T07:50:01.243Z,100593
2022-08-02T07:51:00.304Z,100593
2022-08-02T07:52:00.281Z,100593
2022-08-02T07:53:00.296Z,100593
2022-08-02T07:54:02.219Z,100590
2022-08-02T07:55:00.433Z,100590
2022-08-02T07:56:00.262Z,100590
2022-08-02T07:57:00.275Z,100590
2022-08-02T07:58:00.250Z,100590
2022-08-02T07:59:00.311Z,100584
2022-08-02T08:00:00.371Z,100584
2022-08-02T08:01:00.400Z,100584
2022-08-02T08:02:00.347Z,100584
2022-08-02T08:03:00.302Z,100584
2022-08-02T08:04:00.265Z,100586
2022-08-02T08:05:00.386Z,100586
2022-08-02T08:06:01.431Z,100586
2022-08-02T08:07:00.265Z,100586
2022-08-02T08:08:00.366Z,100586
2022-08-02T08:09:00.260Z,100585
2022-08-02T08:10:00.925Z,100585
2022-08-02T08:11:00.270Z,100585
2022-08-02T08:12:00.271Z,100585
2022-08-02T08:13:00.276Z,100585
2022-08-02T08:14:00.274Z,100575
2022-08-02T08:15:00.280Z,100575
2022-08-02T08:16:00.275Z,100575
2022-08-02T08:17:00.294Z,100575
2022-08-02T08:18:00.283Z,100575
2022-08-02T08:19:00.293Z,100585
2022-08-02T08:20:00.956Z,100585
2022-08-02T08:21:00.268Z,100585
2022-08-02T08:22:00.354Z,100585
2022-08-02T08:23:00.483Z,100585
2022-08-02T08:24:00.286Z,100579
2022-08-02T08:25:00.257Z,100579
2022-08-02T08:26:00.270Z,100579
2022-08-02T08:27:00.279Z,100579
2022-08-02T08:28:00.267Z,100579
2022-08-02T08:29:00.273Z,100566
2022-08-02T08:30:00.311Z,100566
2022-08-02T08:31:00.586Z,100566
2022-08-02T08:32:00.296Z,100566
2022-08-02T08:33:00.281Z,100566
2022-08-02T08:34:00.752Z,100570
2022-08-02T08:35:00.275Z,100570
2022-08-02T08:36:02.452Z,100570
2022-08-02T08:37:00.515Z,100570
2022-08-02T08:38:04.193Z,100570
2022-08-02T08:39:00.255Z,100579
2022-08-02T08:40:00.301Z,100579
2022-08-02T08:41:00.642Z,100579
2022-08-02T08:42:00.244Z,100579
2022-08-02T08:43:00.311Z,100579
2022-08-02T08:44:00.509Z,100585
2022-08-02T08:45:00.526Z,100585
2022-08-02T08:46:00.510Z,100585
2022-08-02T08:47:01.926Z,100585
2022-08-02T08:48:05.277Z,100585
2022-08-02T08:49:02.220Z,100585
2022-08-02T08:50:02.452Z,100585
2022-08-02T08:51:03.416Z,100585
2022-08-02T08:52:02.936Z,100585
2022-08-02T08:53:02.796Z,100585
2022-08-02T08:54:01.436Z,100588
2022-08-02T08:55:00.866Z,100588
2022-08-02T08:56:00.491Z,100588
2022-08-02T08:57:03.292Z,100588
2022-08-02T08:58:01.361Z,100588
2022-08-02T08:59:00.727Z,100590
2022-08-02T09:00:00.504Z,100590
2022-08-02T09:01:00.592Z,100590
2022-08-02T09:02:01.039Z,100590
2022-08-02T09:03:02.202Z,100590
2022-08-02T09:04:00.376Z,100590
2022-08-02T09:05:00.590Z,100590
2022-08-02T09:06:00.262Z,100590
2022-08-02T09:07:00.252Z,100590
2022-08-02T09:08:00.327Z,100590
2022-08-02T09:09:00.258Z,100591
2022-08-02T09:10:00.344Z,100591
2022-08-02T09:11:00.370Z,100591
2022-08-02T09:12:10.525Z,100591
2022-08-02T09:13:38.774Z,100591
2022-08-02T09:14:00.926Z,100589
2022-08-02T09:15:03.411Z,100589
2022-08-02T09:16:12.363Z,100589
2022-08-02T09:17:08.815Z,100589
2022-08-02T09:18:01.960Z,100589
2022-08-02T09:19:01.745Z,100581
2022-08-02T09:20:05.598Z,100581
2022-08-02T09:21:01.790Z,100581
2022-08-02T09:22:01.445Z,100581
2022-08-02T09:23:08.124Z,100581
2022-08-02T09:24:00.340Z,100566
2022-08-02T09:25:00.283Z,100566
2022-08-02T09:26:05.743Z,100566
2022-08-02T09:27:08.848Z,100566
2022-08-02T09:28:01.450Z,100566
2022-08-02T09:29:01.132Z,100569
2022-08-02T09:30:12.389Z,100569
2022-08-02T09:31:04.583Z,100569
2022-08-02T09:32:02.220Z,100569
2022-08-02T09:33:00.277Z,100569
2022-08-02T09:34:00.356Z,100562
2022-08-02T09:35:00.295Z,100562
2022-08-02T09:36:06.077Z,100562
2022-08-02T09:37:00.262Z,100562
2022-08-02T09:38:08.423Z,100562
2022-08-02T09:39:01.387Z,100571
2022-08-02T09:40:00.290Z,100571
2022-08-02T09:41:00.511Z,100571
2022-08-02T09:42:06.748Z,100571
2022-08-02T09:43:00.301Z,100571
2022-08-02T09:44:03.861Z,100571
2022-08-02T09:45:00.939Z,100571
2022-08-02T09:46:08.585Z,100571
2022-08-02T09:47:10.185Z,100571
2022-08-02T09:48:01.870Z,100571
2022-08-02T09:49:01.701Z,100563
2022-08-02T09:50:00.309Z,100563
2022-08-02T09:51:00.313Z,100563
2022-08-02T09:52:00.458Z,100563
2022-08-02T09:53:01.000Z,100563
2022-08-02T09:54:08.281Z,100572
2022-08-02T09:55:03.155Z,100572
2022-08-02T09:56:00.359Z,100572
2022-08-02T09:57:00.648Z,100572
2022-08-02T09:58:10.169Z,100572
2022-08-02T09:59:05.341Z,100570
2022-08-02T10:00:00.332Z,100570
2022-08-02T10:01:01.829Z,100570
2022-08-02T10:02:08.291Z,100570
2022-08-02T10:03:13.631Z,100570
2022-08-02T10:04:02.134Z,100570
2022-08-02T10:05:00.268Z,100570
2022-08-02T10:06:02.286Z,100570
2022-08-02T10:07:00.645Z,100570
2022-08-02T10:08:00.510Z,100570
2022-08-02T10:09:00.438Z,100574
2022-08-02T10:10:00.635Z,100574
2022-08-02T10:11:00.897Z,100574
2022-08-02T10:12:00.564Z,100574
2022-08-02T10:13:00.362Z,100574
2022-08-02T10:14:02.116Z,100576
2022-08-02T10:15:01.194Z,100576
2022-08-02T10:16:00.509Z,100576
2022-08-02T10:17:02.177Z,100576
2022-08-02T10:18:00.256Z,100576
2022-08-02T10:19:00.315Z,100576
2022-08-02T10:20:04.194Z,100576
2022-08-02T10:21:01.047Z,100576
2022-08-02T10:22:03.180Z,100576
2022-08-02T10:23:00.735Z,100576
2022-08-02T10:24:05.142Z,100567
2022-08-02T10:25:01.993Z,100567
2022-08-02T10:26:01.483Z,100567
2022-08-02T10:27:01.930Z,100567
2022-08-02T10:28:05.648Z,100567
2022-08-02T10:29:00.424Z,100566
2022-08-02T10:30:00.813Z,100566
2022-08-02T10:31:01.308Z,100566
2022-08-02T10:32:02.037Z,100566
2022-08-02T10:33:01.784Z,100566
2022-08-02T10:34:02.133Z,100570
2022-08-02T10:35:19.672Z,100570
2022-08-02T10:36:04.246Z,100570
2022-08-02T10:37:00.806Z,100570
2022-08-02T10:38:01.536Z,100570
2022-08-02T10:39:00.619Z,100571
2022-08-02T10:40:00.480Z,100571
2022-08-02T10:41:00.347Z,100571
2022-08-02T10:42:00.294Z,100571
2022-08-02T10:43:00.858Z,100571
2022-08-02T10:44:00.327Z,100578
2022-08-02T10:45:08.001Z,100578
2022-08-02T10:46:10.205Z,100578
2022-08-02T10:47:10.176Z,100578
2022-08-02T10:48:06.892Z,100578
2022-08-02T10:49:37.405Z,100579
2022-08-02T10:50:00.439Z,100579
2022-08-02T10:51:02.022Z,100579
2022-08-02T10:52:00.263Z,100579
2022-08-02T10:53:10.185Z,100579
2022-08-02T10:54:07.637Z,100589
2022-08-02T10:55:00.264Z,100589
2022-08-02T10:56:02.207Z,100589
2022-08-02T10:57:01.334Z,100589
2022-08-02T10:58:10.178Z,100589
2022-08-02T10:59:10.195Z,100578
2022-08-02T11:00:08.478Z,100578
2022-08-02T11:01:05.222Z,100578
2022-08-02T11:02:01.306Z,100578
2022-08-02T11:03:00.286Z,100578
2022-08-02T11:04:00.328Z,100584
2022-08-02T11:05:01.234Z,100584
2022-08-02T11:06:08.684Z,100584
2022-08-02T11:07:10.169Z,100584
2022-08-02T11:08:10.189Z,100584
2022-08-02T11:09:10.193Z,100584
2022-08-02T11:10:10.182Z,100584
2022-08-02T11:11:10.178Z,100584
2022-08-02T11:12:01.301Z,100584
2022-08-02T11:13:01.842Z,100584
2022-08-02T11:14:01.655Z,100585
2022-08-02T11:15:01.797Z,100585
2022-08-02T11:16:00.243Z,100585
2022-08-02T11:17:00.261Z,100585
2022-08-02T11:18:00.289Z,100585
2022-08-02T11:19:01.013Z,100578
2022-08-02T11:20:07.714Z,100578
2022-08-02T11:21:10.161Z,100578
2022-08-02T11:22:01.426Z,100578
2022-08-02T11:23:10.167Z,100578
2022-08-02T11:24:10.181Z,100577
2022-08-02T11:25:10.219Z,100577
2022-08-02T11:26:10.647Z,100577
2022-08-02T11:27:01.244Z,100577
2022-08-02T11:28:09.433Z,100577
2022-08-02T11:29:01.216Z,100568
2022-08-02T11:30:10.191Z,100568
2022-08-02T11:31:00.578Z,100568
2022-08-02T11:32:00.395Z,100568
2022-08-02T11:33:00.591Z,100568
2022-08-02T11:34:00.439Z,100567
2022-08-02T11:35:01.262Z,100567
2022-08-02T11:36:01.659Z,100567
2022-08-02T11:37:00.654Z,100567
2022-08-02T11:38:10.168Z,100567
2022-08-02T11:39:08.402Z,100567
2022-08-02T11:40:00.325Z,100567
2022-08-02T11:41:00.385Z,100567
2022-08-02T11:42:00.270Z,100567
2022-08-02T11:43:00.298Z,100567
2022-08-02T11:44:00.274Z,100556
2022-08-02T11:45:00.684Z,100556
2022-08-02T11:46:03.757Z,100556
2022-08-02T11:47:01.603Z,100556
2022-08-02T11:48:00.288Z,100556
2022-08-02T11:49:10.208Z,100558
2022-08-02T11:50:08.372Z,100558
2022-08-02T11:51:02.363Z,100558
2022-08-02T11:52:01.090Z,100558
2022-08-02T11:53:00.287Z,100558
2022-08-02T11:54:00.276Z,100554
2022-08-02T11:55:00.360Z,100554
2022-08-02T11:56:00.288Z,100554
2022-08-02T11:57:10.169Z,100554
2022-08-02T11:58:03.055Z,100554
2022-08-02T11:59:08.723Z,100557
2022-08-02T12:00:00.914Z,100557
2022-08-02T12:01:00.526Z,100557
2022-08-02T12:02:03.331Z,100557
2022-08-02T12:03:00.483Z,100557
2022-08-02T12:04:01.160Z,100553
2022-08-02T12:05:01.972Z,100553
2022-08-02T12:06:06.505Z,100553
2022-08-02T12:07:00.704Z,100553
2022-08-02T12:08:04.460Z,100553
2022-08-02T12:09:18.629Z,100548
2022-08-02T12:10:01.353Z,100548
2022-08-02T12:11:01.526Z,100548
2022-08-02T12:12:00.976Z,100548
2022-08-02T12:13:00.455Z,100548
2022-08-02T12:14:00.271Z,100549
2022-08-02T12:15:00.283Z,100549
2022-08-02T12:16:08.883Z,100549
2022-08-02T12:17:00.294Z,100549
2022-08-02T12:18:00.281Z,100549
2022-08-02T12:19:00.312Z,100544
2022-08-02T12:20:00.283Z,100544
2022-08-02T12:21:00.708Z,100544
2022-08-02T12:22:10.616Z,100544
2022-08-02T12:23:02.161Z,100544
2022-08-02T12:24:01.326Z,100537
2022-08-02T12:25:10.187Z,100537
2022-08-02T12:26:00.242Z,100537
2022-08-02T12:27:00.398Z,100537
2022-08-02T12:28:13.254Z,100537